createdAt,value
2019-06-08T00:01:22.834Z,6.93
2019-06-08T00:03:52.960Z,6.97
2019-06-08T00:06:23.056Z,7.33
2019-06-08T00:08:52.846Z,7.17
2019-06-08T00:11:23.498Z,7.03
2019-06-08T00:13:53.227Z,4.53
2019-06-08T00:16:23.782Z,7.40
2019-06-08T00:18:54.660Z,6.00
2019-06-08T00:21:24.333Z,5.80
2019-06-08T00:23:54.612Z,4.20
2019-06-08T00:26:24.524Z,1.73
2019-06-08T00:28:54.239Z,2.10
2019-06-08T00:31:24.292Z,2.00
2019-06-08T00:33:53.952Z,2.10
2019-06-08T00:36:24.951Z,1.93
2019-06-08T00:38:54.727Z,2.10
2019-06-08T00:41:25.408Z,1.73
2019-06-08T00:43:55.235Z,1.63
2019-06-08T00:46:25.681Z,1.43
2019-06-08T00:48:55.526Z,1.30
2019-06-08T00:51:25.620Z,1.47
2019-06-08T00:53:56.389Z,1.00
2019-06-08T00:56:26.171Z,1.00
2019-06-08T00:58:55.888Z,1.17
2019-06-08T01:01:28.029Z,1.20
2019-06-08T01:03:56.933Z,1.10
2019-06-08T01:06:27.531Z,1.10
2019-06-08T01:08:58.762Z,1.17
2019-06-08T01:11:28.902Z,1.10
2019-06-08T01:13:58.781Z,1.20
2019-06-08T01:16:29.269Z,0.90
2019-06-08T01:18:58.987Z,0.97
2019-06-08T01:21:29.983Z,0.93
2019-06-08T01:24:00.097Z,0.70
2019-06-08T01:26:30.232Z,0.80
2019-06-08T01:29:01.837Z,1.10
2019-06-08T01:31:31.536Z,0.73
2019-06-08T01:34:01.208Z,0.80
2019-06-08T01:36:31.240Z,0.80
2019-06-08T01:39:00.916Z,0.80
2019-06-08T01:41:32.188Z,0.90
2019-06-08T01:44:01.866Z,0.73
2019-06-08T01:46:32.433Z,0.90
2019-06-08T01:49:02.175Z,0.80
2019-06-08T01:51:32.731Z,0.90
2019-06-08T01:54:02.837Z,0.93
2019-06-08T01:56:33.390Z,0.50
2019-06-08T01:59:03.159Z,1.00
2019-06-08T02:01:34.127Z,0.80
2019-06-08T02:04:04.149Z,0.90
2019-06-08T02:06:34.665Z,0.60
2019-06-08T02:09:08.401Z,0.83
2019-06-08T02:11:38.049Z,0.80
2019-06-08T02:14:07.847Z,0.97
2019-06-08T02:16:37.548Z,0.50
2019-06-08T02:19:07.208Z,0.60
2019-06-08T02:21:37.109Z,0.90
2019-06-08T02:24:06.783Z,0.80
2019-06-08T02:26:36.682Z,0.83
2019-06-08T02:29:06.401Z,0.87
2019-06-08T02:31:37.694Z,1.10
2019-06-08T02:34:07.671Z,1.17
2019-06-08T02:36:38.083Z,0.80
2019-06-08T02:39:08.866Z,0.90
2019-06-08T02:41:39.984Z,0.87
2019-06-08T02:44:10.217Z,1.30
2019-06-08T02:46:40.476Z,0.80
2019-06-08T02:49:10.398Z,0.90
2019-06-08T02:51:41.151Z,0.80
2019-06-08T02:54:12.340Z,0.87
2019-06-08T02:56:43.143Z,1.20
2019-06-08T02:59:14.692Z,1.10
2019-06-08T03:01:48.224Z,0.90
2019-06-08T03:04:18.778Z,1.10
2019-06-08T03:06:50.915Z,1.07
2019-06-08T03:09:23.747Z,1.07
2019-06-08T03:11:56.360Z,1.23
2019-06-08T03:14:28.285Z,1.03
2019-06-08T03:16:57.974Z,1.30
2019-06-08T03:19:27.630Z,1.60
2019-06-08T03:21:57.280Z,1.30
2019-06-08T03:24:26.941Z,1.13
2019-06-08T03:26:56.725Z,1.10
2019-06-08T03:29:26.418Z,1.13
2019-06-08T03:31:57.769Z,1.30
2019-06-08T03:34:28.566Z,1.40
2019-06-08T03:36:58.270Z,0.90
2019-06-08T03:39:27.992Z,1.00
2019-06-08T03:41:58.198Z,1.03
2019-06-08T03:44:28.257Z,0.53
2019-06-08T03:46:57.909Z,0.77
2019-06-08T03:49:41.065Z,0.70
2019-06-08T03:52:00.728Z,0.70
2019-06-08T03:54:30.486Z,0.83
2019-06-08T03:57:00.548Z,0.90
2019-06-08T03:59:30.217Z,0.80
2019-06-08T04:01:59.874Z,0.80
2019-06-08T04:04:29.548Z,1.20
2019-06-08T04:06:59.197Z,1.03
2019-06-08T04:09:28.936Z,0.80
2019-06-08T04:11:58.587Z,1.00
2019-06-08T04:14:28.250Z,0.90
2019-06-08T04:16:57.908Z,0.87
2019-06-08T04:19:27.581Z,1.10
2019-06-08T04:21:57.236Z,1.20
2019-06-08T04:24:26.907Z,1.00
2019-06-08T04:26:56.557Z,0.60
2019-06-08T04:29:26.227Z,0.80
2019-06-08T04:31:55.955Z,0.60
2019-06-08T04:34:25.707Z,0.80
2019-06-08T04:36:55.368Z,0.70
2019-06-08T04:39:25.053Z,0.50
2019-06-08T04:41:54.705Z,0.60
2019-06-08T04:44:24.384Z,0.50
2019-06-08T04:46:54.028Z,0.40
2019-06-08T04:49:23.696Z,0.43
2019-06-08T04:51:53.353Z,0.60
2019-06-08T04:54:23.048Z,0.63
2019-06-08T04:56:52.720Z,0.47
2019-06-08T04:59:22.374Z,0.50
2019-06-08T05:01:52.050Z,0.67
2019-06-08T05:04:21.706Z,0.50
2019-06-08T05:06:51.367Z,0.50
2019-06-08T05:09:21.292Z,0.50
2019-06-08T05:11:50.955Z,0.40
2019-06-08T05:14:22.065Z,0.50
2019-06-08T05:16:51.709Z,0.40
2019-06-08T05:19:21.364Z,0.50
2019-06-08T05:21:51.366Z,0.60
2019-06-08T05:24:21.996Z,0.40
2019-06-08T05:26:51.725Z,0.40
2019-06-08T05:29:21.383Z,0.50
2019-06-08T05:31:51.131Z,0.60
2019-06-08T05:34:20.798Z,0.50
2019-06-08T05:36:50.475Z,0.50
2019-06-08T05:39:20.119Z,0.53
2019-06-08T05:41:49.968Z,0.50
2019-06-08T05:44:20.078Z,0.53
2019-06-08T05:46:50.085Z,0.33
2019-06-08T05:49:19.732Z,0.47
2019-06-08T05:51:50.037Z,0.30
2019-06-08T05:54:19.747Z,0.43
2019-06-08T05:56:50.395Z,0.43
2019-06-08T05:59:20.253Z,0.37
2019-06-08T06:01:51.048Z,0.33
2019-06-08T06:04:20.911Z,0.40
2019-06-08T06:06:50.992Z,0.70
2019-06-08T06:09:20.713Z,0.80
2019-06-08T06:11:51.172Z,0.50
2019-06-08T06:14:20.907Z,0.43
2019-06-08T06:16:51.299Z,0.50
2019-06-08T06:19:21.176Z,0.70
2019-06-08T06:21:51.516Z,0.40
2019-06-08T06:24:21.339Z,0.40
2019-06-08T06:26:51.644Z,0.30
2019-06-08T06:29:22.497Z,0.40
2019-06-08T06:31:52.212Z,0.30
2019-06-08T06:34:21.837Z,0.50
2019-06-08T06:36:52.229Z,0.40
2019-06-08T06:39:23.233Z,0.40
2019-06-08T06:41:53.561Z,0.30
2019-06-08T06:44:23.215Z,0.50
2019-06-08T06:46:52.964Z,0.60
2019-06-08T06:49:22.612Z,0.40
2019-06-08T06:51:52.699Z,0.50
2019-06-08T06:54:22.514Z,0.40
2019-06-08T06:56:52.180Z,0.30
2019-06-08T06:59:22.078Z,0.30
2019-06-08T07:01:55.791Z,0.40
2019-06-08T07:04:23.719Z,0.50
2019-06-08T07:06:54.415Z,0.40
2019-06-08T07:09:24.126Z,0.50
2019-06-08T07:11:56.256Z,0.40
2019-06-08T07:14:25.156Z,0.40
2019-06-08T07:16:56.046Z,0.43
2019-06-08T07:19:25.862Z,0.53
2019-06-08T07:21:55.525Z,0.60
2019-06-08T07:24:25.205Z,0.50
2019-06-08T07:26:54.893Z,0.47
2019-06-08T07:29:24.553Z,0.40
2019-06-08T07:31:55.266Z,0.43
2019-06-08T07:34:25.222Z,0.17
2019-06-08T07:36:55.516Z,0.40
2019-06-08T07:39:26.448Z,0.40
2019-06-08T07:41:56.113Z,0.53
2019-06-08T07:44:25.775Z,0.70
2019-06-08T07:46:56.092Z,0.50
2019-06-08T07:49:26.136Z,0.50
2019-06-08T07:52:07.432Z,0.60
2019-06-08T07:54:27.379Z,0.50
2019-06-08T07:56:57.169Z,0.40
2019-06-08T07:59:26.775Z,0.70
2019-06-08T08:01:58.221Z,0.40
2019-06-08T08:04:28.226Z,0.50
2019-06-08T08:06:58.815Z,0.60
2019-06-08T08:09:29.185Z,0.60
2019-06-08T08:11:59.749Z,0.50
2019-06-08T08:14:29.536Z,0.57
2019-06-08T08:16:59.208Z,0.40
2019-06-08T08:19:28.877Z,0.80
2019-06-08T08:22:03.135Z,0.87
2019-06-08T08:24:29.958Z,0.50
2019-06-08T08:27:03.292Z,0.47
2019-06-08T08:29:31.557Z,0.80
2019-06-08T08:32:02.071Z,0.57
2019-06-08T08:34:31.857Z,0.50
2019-06-08T08:37:06.067Z,0.50
2019-06-08T08:39:37.726Z,0.60
2019-06-08T08:42:08.618Z,0.50
2019-06-08T08:44:38.373Z,0.50
2019-06-08T08:47:09.224Z,0.60
2019-06-08T08:49:43.110Z,0.60
2019-06-08T08:52:17.467Z,0.43
2019-06-08T08:54:51.210Z,0.70
2019-06-08T08:57:22.055Z,0.70
2019-06-08T08:59:56.022Z,0.40
2019-06-08T09:02:24.402Z,0.70
2019-06-08T09:04:55.229Z,0.80
2019-06-08T09:07:25.025Z,0.47
2019-06-08T09:09:56.159Z,0.53
2019-06-08T09:12:27.661Z,0.47
2019-06-08T09:15:00.193Z,0.80
2019-06-08T09:17:28.968Z,0.63
2019-06-08T09:20:00.338Z,0.60
2019-06-08T09:22:31.255Z,0.50
2019-06-08T09:25:04.025Z,0.70
2019-06-08T09:27:32.415Z,0.40
2019-06-08T09:30:04.420Z,0.40
2019-06-08T09:32:33.421Z,0.80
2019-06-08T09:35:04.816Z,0.80
2019-06-08T09:37:34.649Z,0.73
2019-06-08T09:40:05.039Z,0.53
2019-06-08T09:42:34.728Z,1.10
2019-06-08T09:45:05.593Z,0.67
2019-06-08T09:47:38.100Z,0.83
2019-06-08T09:50:09.562Z,0.50
2019-06-08T09:52:41.403Z,0.60
2019-06-08T09:55:11.069Z,0.53
2019-06-08T09:57:40.691Z,0.67
2019-06-08T10:00:17.770Z,0.60
2019-06-08T10:02:42.162Z,0.40
2019-06-08T10:05:12.737Z,0.70
2019-06-08T10:07:42.437Z,0.80
2019-06-08T10:10:12.784Z,0.60
2019-06-08T10:12:42.413Z,0.63
2019-06-08T10:15:12.634Z,1.00
2019-06-08T10:17:42.325Z,0.60
2019-06-08T10:20:12.350Z,0.50
2019-06-08T10:22:42.034Z,0.97
2019-06-08T10:25:11.949Z,0.70
2019-06-08T10:27:41.878Z,0.67
2019-06-08T10:30:11.920Z,1.43
2019-06-08T10:32:41.573Z,0.60
2019-06-08T10:35:11.582Z,0.73
2019-06-08T10:37:41.583Z,0.50
2019-06-08T10:40:12.094Z,0.70
2019-06-08T10:42:41.747Z,0.50
2019-06-08T10:45:14.779Z,0.67
2019-06-08T10:47:43.950Z,0.70
2019-06-08T10:50:15.515Z,0.60
2019-06-08T10:52:45.554Z,0.60
2019-06-08T10:55:17.858Z,0.50
2019-06-08T10:57:47.779Z,0.70
2019-06-08T11:00:24.138Z,0.80
2019-06-08T11:02:55.144Z,0.63
2019-06-08T11:05:27.928Z,0.73
2019-06-08T11:07:59.354Z,0.70
2019-06-08T11:10:28.587Z,0.57
2019-06-08T11:13:03.127Z,0.67
2019-06-08T11:15:30.295Z,0.90
2019-06-08T11:18:02.270Z,0.90
2019-06-08T11:20:31.541Z,0.50
2019-06-08T11:23:02.456Z,0.60
2019-06-08T11:25:32.536Z,0.70
2019-06-08T11:28:03.467Z,0.57
2019-06-08T11:30:33.813Z,0.90
2019-06-08T11:33:03.850Z,0.83
2019-06-08T11:35:34.038Z,0.70
2019-06-08T11:38:04.099Z,1.57
2019-06-08T11:40:34.258Z,0.70
2019-06-08T11:43:04.453Z,0.70
2019-06-08T11:45:37.835Z,0.90
2019-06-08T11:48:06.717Z,0.70
2019-06-08T11:50:42.166Z,0.60
2019-06-08T11:53:13.777Z,0.50
2019-06-08T11:55:43.978Z,1.20
2019-06-08T11:58:19.349Z,0.33
2019-06-08T12:01:00.764Z,0.70
2019-06-08T12:03:30.413Z,0.57
2019-06-08T12:06:02.030Z,0.83
2019-06-08T12:08:32.938Z,0.60
2019-06-08T12:11:05.454Z,0.67
2019-06-08T12:13:35.796Z,0.60
2019-06-08T12:16:10.547Z,0.50
2019-06-08T12:18:40.132Z,0.70
2019-06-08T12:21:11.258Z,0.60
2019-06-08T12:23:40.079Z,0.80
2019-06-08T12:26:10.193Z,0.80
2019-06-08T12:28:39.966Z,0.70
2019-06-08T12:31:15.683Z,0.90
2019-06-08T12:33:41.047Z,0.73
2019-06-08T12:36:12.660Z,0.60
2019-06-08T12:38:42.234Z,0.80
2019-06-08T12:41:12.693Z,0.60
2019-06-08T12:43:43.269Z,0.80
2019-06-08T12:46:14.621Z,0.70
2019-06-08T12:48:44.514Z,0.67
2019-06-08T12:51:15.189Z,0.90
2019-06-08T12:53:45.989Z,0.73
2019-06-08T12:56:18.660Z,0.70
2019-06-08T12:58:47.639Z,0.80
2019-06-08T13:01:18.833Z,0.83
2019-06-08T13:03:48.639Z,0.87
2019-06-08T13:06:18.522Z,1.13
2019-06-08T13:08:49.787Z,0.60
2019-06-08T13:11:21.206Z,0.83
2019-06-08T13:13:50.958Z,0.70
2019-06-08T13:16:24.299Z,0.90
2019-06-08T13:18:52.076Z,1.00
2019-06-08T13:21:32.066Z,1.17
2019-06-08T13:23:53.074Z,0.90
2019-06-08T13:26:27.895Z,0.60
2019-06-08T13:28:54.079Z,0.80
2019-06-08T13:31:24.718Z,1.10
2019-06-08T13:33:55.430Z,0.80
2019-06-08T13:36:27.177Z,0.60
2019-06-08T13:38:56.761Z,0.90
2019-06-08T13:41:29.681Z,0.60
2019-06-08T13:43:58.224Z,1.00
2019-06-08T13:46:28.367Z,0.63
2019-06-08T13:48:58.536Z,0.90
2019-06-08T13:51:28.513Z,0.90
2019-06-08T13:53:59.216Z,0.60
2019-06-08T13:56:28.905Z,0.70
2019-06-08T13:58:58.906Z,0.80
2019-06-08T14:01:30.863Z,0.80
2019-06-08T14:04:00.724Z,0.80
2019-06-08T14:06:30.468Z,0.90
2019-06-08T14:09:00.435Z,0.83
2019-06-08T14:11:36.276Z,1.20
2019-06-08T14:14:08.590Z,0.90
2019-06-08T14:16:40.781Z,1.00
2019-06-08T14:19:11.553Z,0.70
2019-06-08T14:21:42.105Z,0.87
2019-06-08T14:24:13.517Z,0.87
2019-06-08T14:26:43.352Z,0.90
2019-06-08T14:29:19.669Z,0.80
2019-06-08T14:31:49.340Z,1.00
2019-06-08T14:34:21.759Z,1.10
2019-06-08T14:36:51.737Z,0.97
2019-06-08T14:39:22.057Z,0.70
2019-06-08T14:41:52.729Z,1.13
2019-06-08T14:44:22.940Z,1.00
2019-06-08T14:46:53.774Z,1.10
2019-06-08T14:49:28.080Z,0.80
2019-06-08T14:51:58.457Z,0.70
2019-06-08T14:54:33.357Z,1.10
2019-06-08T14:57:00.216Z,0.90
2019-06-08T14:59:31.634Z,1.00
2019-06-08T15:02:01.765Z,0.90
2019-06-08T15:04:36.298Z,0.90
2019-06-08T15:07:03.152Z,1.13
2019-06-08T15:09:32.873Z,0.90
2019-06-08T15:12:02.619Z,0.90
2019-06-08T15:14:34.862Z,0.70
2019-06-08T15:17:04.422Z,0.90
2019-06-08T15:19:35.455Z,1.13
2019-06-08T15:22:05.266Z,1.03
2019-06-08T15:24:34.926Z,0.90
2019-06-08T15:27:11.015Z,0.77
2019-06-08T15:29:42.052Z,0.90
2019-06-08T15:32:11.873Z,0.80
2019-06-08T15:34:42.131Z,1.03
2019-06-08T15:37:12.060Z,1.00
2019-06-08T15:39:41.860Z,0.70
2019-06-08T15:42:11.490Z,0.80
2019-06-08T15:44:41.284Z,0.90
2019-06-08T15:47:11.188Z,1.10
2019-06-08T15:49:40.853Z,0.80
2019-06-08T15:52:11.102Z,0.90
2019-06-08T15:54:41.134Z,1.10
2019-06-08T15:57:17.847Z,0.80
2019-06-08T15:59:49.205Z,0.90
2019-06-08T16:02:22.981Z,0.90
2019-06-08T16:04:52.881Z,1.10
2019-06-08T16:07:27.702Z,1.03
2019-06-08T16:09:54.183Z,1.10
2019-06-08T16:12:24.286Z,1.10
2019-06-08T16:14:54.054Z,0.90
2019-06-08T16:17:25.054Z,1.10
2019-06-08T16:19:54.785Z,1.00
2019-06-08T16:22:25.743Z,1.23
2019-06-08T16:24:55.501Z,0.80
2019-06-08T16:27:25.746Z,1.13
2019-06-08T16:29:55.391Z,1.00
2019-06-08T16:32:25.115Z,1.17
2019-06-08T16:34:54.781Z,0.97
2019-06-08T16:37:24.430Z,1.40
2019-06-08T16:39:54.342Z,1.20
2019-06-08T16:42:23.998Z,0.97
2019-06-08T16:44:53.636Z,1.17
2019-06-08T16:47:23.815Z,2.07
2019-06-08T16:49:53.457Z,0.90
2019-06-08T16:52:23.120Z,1.30
2019-06-08T16:54:52.999Z,1.10
2019-06-08T16:57:22.656Z,1.03
2019-06-08T16:59:52.315Z,1.20
2019-06-08T17:02:21.982Z,1.30
2019-06-08T17:04:51.888Z,1.50
2019-06-08T17:07:21.551Z,1.30
2019-06-08T17:09:51.213Z,1.23
2019-06-08T17:12:20.957Z,1.00
2019-06-08T17:14:50.601Z,1.10
2019-06-08T17:17:20.262Z,1.00
2019-06-08T17:19:49.913Z,1.33
2019-06-08T17:22:19.579Z,1.03
2019-06-08T17:24:49.309Z,1.20
2019-06-08T17:27:26.754Z,1.10
2019-06-08T17:29:50.318Z,0.90
2019-06-08T17:32:20.281Z,1.00
2019-06-08T17:34:50.899Z,1.07
2019-06-08T17:37:20.723Z,1.00
2019-06-08T17:39:50.645Z,0.93
2019-06-08T17:42:20.552Z,1.10
2019-06-08T17:44:50.200Z,0.90
2019-06-08T17:47:19.858Z,1.10
2019-06-08T17:49:49.516Z,0.90
2019-06-08T17:52:19.204Z,1.30
2019-06-08T17:54:48.986Z,1.20
2019-06-08T17:57:18.648Z,1.07
2019-06-08T17:59:48.313Z,1.30
2019-06-08T18:02:27.278Z,0.80
2019-06-08T18:04:50.380Z,1.07
2019-06-08T18:07:20.202Z,1.17
2019-06-08T18:09:50.096Z,0.87
2019-06-08T18:12:19.832Z,0.93
2019-06-08T18:14:49.573Z,1.10
2019-06-08T18:17:19.348Z,1.00
2019-06-08T18:19:49.847Z,0.90
2019-06-08T18:22:19.603Z,0.93
2019-06-08T18:24:49.320Z,0.87
2019-06-08T18:27:18.980Z,1.23
2019-06-08T18:29:49.089Z,0.90
2019-06-08T18:32:18.836Z,1.03
2019-06-08T18:34:48.485Z,1.40
2019-06-08T18:37:18.431Z,0.80
2019-06-08T18:39:49.496Z,1.27
2019-06-08T18:42:20.410Z,1.03
2019-06-08T18:44:50.295Z,1.10
2019-06-08T18:47:19.964Z,1.00
2019-06-08T18:49:49.616Z,1.20
2019-06-08T18:52:19.831Z,1.20
2019-06-08T18:54:50.065Z,1.00
2019-06-08T18:57:20.376Z,1.20
2019-06-08T18:59:52.908Z,1.20
2019-06-08T19:02:21.547Z,1.20
2019-06-08T19:04:51.516Z,1.20
2019-06-08T19:07:21.178Z,1.20
2019-06-08T19:09:51.539Z,1.40
2019-06-08T19:12:21.501Z,1.20
2019-06-08T19:14:52.386Z,1.33
2019-06-08T19:17:22.206Z,1.20
2019-06-08T19:19:52.579Z,0.93
2019-06-08T19:22:23.514Z,1.43
2019-06-08T19:24:53.185Z,0.90
2019-06-08T19:27:23.241Z,1.40
2019-06-08T19:29:52.897Z,1.30
2019-06-08T19:32:22.797Z,1.47
2019-06-08T19:34:54.655Z,1.27
2019-06-08T19:37:24.038Z,1.40
2019-06-08T19:39:53.705Z,1.50
2019-06-08T19:42:35.889Z,1.40
2019-06-08T19:45:04.721Z,1.50
2019-06-08T19:47:27.579Z,1.63
2019-06-08T19:49:57.859Z,1.30
2019-06-08T19:52:28.610Z,1.97
2019-06-08T19:54:58.371Z,1.87
2019-06-08T19:57:28.453Z,1.30
2019-06-08T20:00:00.400Z,1.73
2019-06-08T20:02:29.517Z,1.30
2019-06-08T20:04:59.197Z,1.47
2019-06-08T20:07:28.865Z,1.50
2019-06-08T20:09:59.598Z,1.60
2019-06-08T20:12:29.257Z,1.43
2019-06-08T20:14:58.941Z,1.50
2019-06-08T20:17:29.574Z,1.70
2019-06-08T20:19:59.324Z,1.60
2019-06-08T20:22:29.432Z,1.60
2019-06-08T20:24:59.855Z,1.43
2019-06-08T20:27:29.480Z,1.70
2019-06-08T20:29:59.156Z,1.73
2019-06-08T20:32:28.905Z,1.73
2019-06-08T20:34:58.686Z,1.97
2019-06-08T20:37:28.614Z,1.60
2019-06-08T20:40:09.369Z,1.73
2019-06-08T20:42:30.907Z,2.00
2019-06-08T20:45:00.870Z,2.20
2019-06-08T20:47:30.537Z,2.23
2019-06-08T20:50:00.227Z,2.70
2019-06-08T20:52:30.159Z,2.50
2019-06-08T20:55:00.159Z,2.10
2019-06-08T20:57:30.995Z,2.40
2019-06-08T21:00:08.189Z,2.00
2019-06-08T21:02:33.676Z,3.07
2019-06-08T21:05:03.476Z,2.10
2019-06-08T21:07:33.135Z,2.37
2019-06-08T21:10:03.119Z,1.97
2019-06-08T21:12:32.841Z,2.00
2019-06-08T21:15:02.588Z,2.70
2019-06-08T21:17:32.606Z,2.60
2019-06-08T21:20:02.372Z,3.07
2019-06-08T21:22:32.383Z,2.87
2019-06-08T21:25:02.050Z,2.40
2019-06-08T21:27:31.705Z,2.47
2019-06-08T21:30:08.504Z,2.47
2019-06-08T21:32:32.728Z,2.57
2019-06-08T21:35:02.382Z,2.10
2019-06-08T21:37:32.025Z,2.80
2019-06-08T21:40:04.211Z,2.40
2019-06-08T21:42:33.038Z,2.47
2019-06-08T21:45:07.082Z,2.80
2019-06-08T21:47:37.682Z,2.27
2019-06-08T21:50:09.544Z,2.17
2019-06-08T21:52:39.156Z,2.33
2019-06-08T21:55:09.255Z,2.37
2019-06-08T21:57:39.268Z,2.40
2019-06-08T22:00:29.334Z,2.60
2019-06-08T22:02:44.719Z,2.40
2019-06-08T22:05:14.529Z,2.33
2019-06-08T22:07:44.527Z,2.33
2019-06-08T22:10:14.417Z,2.30
2019-06-08T22:12:44.489Z,2.40
2019-06-08T22:15:14.567Z,2.23
2019-06-08T22:17:44.527Z,2.47
2019-06-08T22:20:14.434Z,2.50
2019-06-08T22:22:44.082Z,1.93
2019-06-08T22:25:13.919Z,2.20
2019-06-08T22:27:43.631Z,2.43
2019-06-08T22:30:22.838Z,2.20
2019-06-08T22:32:47.213Z,2.13
2019-06-08T22:35:16.489Z,1.90
2019-06-08T22:37:48.035Z,1.97
2019-06-08T22:40:17.641Z,1.83
2019-06-08T22:42:48.109Z,2.10
2019-06-08T22:45:18.081Z,2.10
2019-06-08T22:47:47.917Z,1.90
2019-06-08T22:50:18.576Z,1.50
2019-06-08T22:52:48.610Z,2.03
2019-06-08T22:55:18.731Z,1.70
2019-06-08T22:57:48.491Z,2.10
2019-06-08T23:00:21.682Z,2.10
2019-06-08T23:02:50.154Z,2.00
2019-06-08T23:05:20.065Z,2.20
2019-06-08T23:07:50.106Z,2.00
2019-06-08T23:10:19.919Z,2.40
2019-06-08T23:12:49.884Z,1.93
2019-06-08T23:15:19.615Z,1.90
2019-06-08T23:17:49.333Z,1.90
2019-06-08T23:20:19.060Z,2.00
2019-06-08T23:22:48.777Z,1.80
2019-06-08T23:25:18.518Z,2.20
2019-06-08T23:27:48.484Z,1.93
2019-06-08T23:30:18.962Z,2.10
2019-06-08T23:32:48.858Z,1.70
2019-06-08T23:35:18.507Z,2.03
2019-06-08T23:37:48.162Z,1.97
2019-06-08T23:40:18.136Z,1.90
2019-06-08T23:42:47.818Z,1.90
2019-06-08T23:45:18.509Z,2.27
2019-06-08T23:47:48.264Z,1.90
2019-06-08T23:50:19.235Z,1.87
2019-06-08T23:52:48.883Z,1.87
2019-06-08T23:55:18.942Z,2.10
2019-06-08T23:57:48.672Z,1.90
